Time;durP1;ratioP1;P1;durP2;ratioP2;P2;SDS_P1;SDS_P2;PMS_P1;PMS_P2;Temp;Humidity;BMP_temperature;BMP_pressure;BME280_temperature;BME280_humidity;BME280_pressure;Samples;Min_cycle;Max_cycle;Signal;HPM_P1;HPM_P2
2022/04/27 00:01:12;;;;;;;11.73;6.93;;;7.70;99.90;;;;;;4897289;29;20122;-92
2022/04/27 00:03:38;;;;;;;14.02;6.35;;;7.70;99.90;;;;;;4880692;29;20395;-94
2022/04/27 00:06:05;;;;;;;13.07;6.05;;;7.70;99.90;;;;;;4912063;29;20059;-91
2022/04/27 00:08:31;;;;;;;14.02;6.35;;;7.80;99.90;;;;;;4911564;29;20051;-91
2022/04/27 00:10:57;;;;;;;13.73;7.30;;;7.80;99.90;;;;;;4895953;29;20043;-91
2022/04/27 00:13:23;;;;;;;13.65;6.45;;;7.80;99.90;;;;;;4911764;29;20390;-91
2022/04/27 00:15:49;;;;;;;8.85;6.15;;;7.80;99.90;;;;;;4896036;29;20098;-91
2022/04/27 00:18:15;;;;;;;12.45;6.70;;;7.80;99.90;;;;;;4911323;29;20043;-93
2022/04/27 00:20:41;;;;;;;12.55;6.63;;;7.80;99.90;;;;;;4911655;29;20540;-93
2022/04/27 00:23:08;;;;;;;13.70;7.30;;;8.00;99.90;;;;;;4880325;29;20051;-92
2022/04/27 00:25:34;;;;;;;12.60;7.18;;;7.90;99.90;;;;;;4896158;29;20047;-92
2022/04/27 00:28:00;;;;;;;14.98;7.22;;;7.90;99.90;;;;;;4912333;29;20090;-93
2022/04/27 00:30:26;;;;;;;10.70;6.43;;;8.00;99.90;;;;;;4895616;29;20051;-92
2022/04/27 00:32:52;;;;;;;12.38;6.65;;;7.90;99.90;;;;;;4895606;29;20051;-91
2022/04/27 00:35:18;;;;;;;11.27;6.25;;;7.90;99.90;;;;;;4927291;29;20509;-92
2022/04/27 00:37:44;;;;;;;11.77;5.60;;;7.90;99.90;;;;;;4880276;29;20035;-94
2022/04/27 00:40:10;;;;;;;12.45;6.57;;;7.90;99.90;;;;;;4911282;29;20532;-92
2022/04/27 00:42:37;;;;;;;12.45;5.35;;;7.90;99.90;;;;;;4895296;29;20137;-91
2022/04/27 00:45:05;;;;;;;15.05;5.25;;;7.90;99.90;;;;;;4895528;29;20074;-92
2022/04/27 00:47:31;;;;;;;12.07;5.38;;;7.90;99.90;;;;;;4911328;29;20118;-92
2022/04/27 00:49:58;;;;;;;10.85;5.50;;;8.00;99.90;;;;;;4911022;29;20043;-91
2022/04/27 00:52:24;;;;;;;8.90;5.32;;;8.00;99.90;;;;;;4895209;29;20051;-92
2022/04/27 00:54:53;;;;;;;8.00;5.10;;;8.00;99.90;;;;;;4926628;29;20446;-92
2022/04/27 00:57:22;;;;;;;9.45;5.97;;;8.00;99.90;;;;;;4926039;29;20050;-92
2022/04/27 00:59:48;;;;;;;14.02;6.15;;;8.00;99.90;;;;;;4895276;29;20047;-92
2022/04/27 01:02:14;;;;;;;12.32;5.97;;;8.00;99.90;;;;;;4926252;29;20143;-92
2022/04/27 01:04:40;;;;;;;9.57;5.32;;;8.00;99.90;;;;;;4910558;28;20490;-92
2022/04/27 01:07:08;;;;;;;12.48;5.75;;;8.10;99.90;;;;;;4894984;29;20152;-91
2022/04/27 01:09:35;;;;;;;10.98;5.50;;;8.00;99.90;;;;;;4926128;29;20047;-94
2022/04/27 01:12:01;;;;;;;11.77;5.35;;;8.10;99.90;;;;;;4926144;29;20179;-92
2022/04/27 01:14:27;;;;;;;9.05;5.28;;;8.00;99.90;;;;;;4910457;29;20486;-91
2022/04/27 01:16:55;;;;;;;10.70;5.25;;;8.00;99.90;;;;;;4910741;29;20043;-92
2022/04/27 01:19:26;;;;;;;11.40;4.70;;;8.10;99.90;;;;;;4925768;29;20043;-91
2022/04/27 01:21:55;;;;;;;8.77;5.00;;;8.10;99.90;;;;;;4895704;29;20046;-92
2022/04/27 01:24:26;;;;;;;8.00;5.03;;;8.10;99.90;;;;;;4910079;29;20494;-93
2022/04/27 01:26:53;;;;;;;6.80;4.72;;;8.10;99.90;;;;;;4911145;29;20058;-93
2022/04/27 01:29:22;;;;;;;10.60;5.60;;;8.10;99.90;;;;;;4910273;29;20398;-93
2022/04/27 01:31:49;;;;;;;8.65;5.18;;;8.20;99.90;;;;;;4910995;29;20094;-92
2022/04/27 01:34:16;;;;;;;9.77;5.55;;;8.10;99.90;;;;;;4910415;29;20044;-92
2022/04/27 01:36:42;;;;;;;8.82;5.47;;;8.10;99.90;;;;;;4879306;29;20043;-91
2022/04/27 01:39:08;;;;;;;11.98;5.50;;;8.10;99.90;;;;;;4894460;29;20089;-92
2022/04/27 01:41:36;;;;;;;9.63;5.18;;;8.10;99.90;;;;;;4910023;29;20121;-93
2022/04/27 01:44:02;;;;;;;11.20;5.72;;;8.10;99.90;;;;;;4910259;29;20051;-94
2022/04/27 01:46:28;;;;;;;7.03;4.93;;;8.10;99.90;;;;;;4910492;29;20597;-91
2022/04/27 01:48:55;;;;;;;10.15;5.90;;;8.00;99.90;;;;;;4909668;29;20087;-92
2022/04/27 01:54:17;;;;;;;9.45;5.13;;;8.10;99.90;;;;;;4893208;29;20051;-93
2022/04/27 01:56:49;;;;;;;9.75;5.10;;;8.10;99.90;;;;;;4910477;29;20050;-93
2022/04/27 01:59:16;;;;;;;9.43;5.20;;;8.10;99.90;;;;;;4910031;29;20043;-92
2022/04/27 02:01:42;;;;;;;13.82;5.93;;;8.00;99.90;;;;;;4894402;29;20106;-93
2022/04/27 02:04:08;;;;;;;10.32;5.43;;;8.10;99.90;;;;;;4909738;29;20074;-92
2022/04/27 02:06:37;;;;;;;8.40;5.05;;;8.00;99.90;;;;;;4925567;29;20540;-93
2022/04/27 02:09:07;;;;;;;9.07;5.15;;;8.00;99.90;;;;;;4894237;29;20043;-90
2022/04/27 02:11:33;;;;;;;10.07;5.32;;;8.00;99.90;;;;;;4925161;29;20051;-93
2022/04/27 02:14:00;;;;;;;9.50;5.10;;;8.00;99.90;;;;;;4924939;29;20046;-92
2022/04/27 02:16:28;;;;;;;9.13;5.05;;;8.00;99.90;;;;;;4925275;29;20065;-92
2022/04/27 02:18:55;;;;;;;9.00;5.07;;;8.10;99.90;;;;;;4940735;29;20047;-93
2022/04/27 02:21:22;;;;;;;10.25;4.95;;;7.90;99.90;;;;;;4925260;29;20043;-92
2022/04/27 02:23:49;;;;;;;7.57;4.85;;;8.00;99.90;;;;;;4924732;29;20046;-92
2022/04/27 02:26:16;;;;;;;10.27;4.97;;;8.00;99.90;;;;;;4924977;29;20047;-92
2022/04/27 02:28:42;;;;;;;9.15;5.20;;;8.00;99.90;;;;;;4924966;29;20047;-92
2022/04/27 02:31:08;;;;;;;7.82;4.80;;;8.00;99.90;;;;;;4909049;29;20102;-92
2022/04/27 02:33:34;;;;;;;9.55;5.57;;;8.00;99.90;;;;;;4908994;29;20047;-91
2022/04/27 02:36:00;;;;;;;7.97;4.97;;;8.00;99.90;;;;;;4893614;29;20505;-91
2022/04/27 02:38:27;;;;;;;9.13;4.60;;;8.00;99.90;;;;;;4909254;29;20047;-93
2022/04/27 02:40:54;;;;;;;7.93;4.90;;;8.00;99.90;;;;;;4893418;29;20050;-93
2022/04/27 02:43:24;;;;;;;9.23;4.70;;;8.00;99.90;;;;;;4893803;29;20502;-92
2022/04/27 02:45:49;;;;;;;9.85;4.45;;;8.00;99.90;;;;;;4909347;29;20069;-93
2022/04/27 02:48:15;;;;;;;10.23;4.40;;;8.00;99.90;;;;;;4908784;29;20047;-93
2022/04/27 02:53:26;;;;;;;6.43;4.90;;;8.00;99.90;;;;;;4910984;29;20058;-92
2022/04/27 02:55:52;;;;;;;7.97;4.88;;;8.00;99.90;;;;;;4893360;29;20055;-91
2022/04/27 02:58:17;;;;;;;8.05;4.65;;;8.10;99.90;;;;;;4877631;29;20047;-92
2022/04/27 03:00:46;;;;;;;8.93;5.03;;;8.00;99.90;;;;;;4893242;29;20039;-92
2022/04/27 03:03:12;;;;;;;6.95;4.40;;;8.10;99.90;;;;;;4924637;29;20512;-93
2022/04/27 03:05:38;;;;;;;6.53;4.10;;;8.00;99.90;;;;;;4908707;29;20035;-92
2022/04/27 03:08:05;;;;;;;7.63;3.85;;;8.00;99.90;;;;;;4892642;29;20063;-91
2022/04/27 03:10:31;;;;;;;7.40;4.30;;;8.00;99.90;;;;;;4908418;29;20089;-92
2022/04/27 03:12:59;;;;;;;6.72;4.25;;;8.00;99.90;;;;;;4893010;29;20047;-93
2022/04/27 03:15:25;;;;;;;7.72;4.20;;;8.00;99.90;;;;;;4894627;29;20043;-91
2022/04/27 03:18:17;;;;;;;8.45;4.07;;;7.90;99.90;;;;;;4924435;29;20079;-91
2022/04/27 03:20:37;;;;;;;6.40;3.72;;;7.90;99.90;;;;;;4911454;29;20130;-91
2022/04/27 03:23:03;;;;;;;10.93;3.97;;;8.00;99.90;;;;;;4893289;29;20051;-91
2022/04/27 03:25:29;;;;;;;6.28;3.78;;;7.90;99.90;;;;;;4877654;29;20053;-92
2022/04/27 03:27:54;;;;;;;6.20;3.90;;;8.00;99.90;;;;;;4877624;29;20043;-93
2022/04/27 03:30:21;;;;;;;7.78;4.25;;;8.10;99.90;;;;;;4892898;29;20051;-91
2022/04/27 03:32:47;;;;;;;6.38;4.05;;;7.90;99.90;;;;;;4924047;29;20051;-92
2022/04/27 03:35:13;;;;;;;4.60;4.10;;;7.90;99.90;;;;;;4908192;29;20091;-91
2022/04/27 03:37:39;;;;;;;8.77;4.13;;;8.00;99.90;;;;;;4892721;29;20071;-93
2022/04/27 03:40:05;;;;;;;6.85;4.00;;;8.00;99.90;;;;;;4892650;29;20043;-92
2022/04/27 03:42:31;;;;;;;9.43;4.03;;;7.90;99.90;;;;;;4892644;29;20054;-92
2022/04/27 03:44:57;;;;;;;6.90;4.90;;;7.90;99.90;;;;;;4877052;29;20055;-94
2022/04/27 03:47:23;;;;;;;4.97;4.38;;;7.90;99.90;;;;;;4892903;29;20170;-91
2022/04/27 03:49:49;;;;;;;7.63;4.25;;;7.90;99.90;;;;;;4908599;29;20051;-91
2022/04/27 03:52:15;;;;;;;8.13;4.53;;;8.00;99.90;;;;;;4893397;29;20477;-92
2022/04/27 03:54:41;;;;;;;6.30;3.85;;;7.90;99.90;;;;;;4892973;29;20043;-93
2022/04/27 03:57:07;;;;;;;7.80;3.58;;;7.90;99.90;;;;;;4892779;29;20042;-91
2022/04/27 03:59:33;;;;;;;7.68;3.80;;;7.90;99.90;;;;;;4893545;29;20462;-93
2022/04/27 04:01:59;;;;;;;6.57;4.13;;;7.90;99.90;;;;;;4908036;29;20039;-93
2022/04/27 04:04:26;;;;;;;6.85;4.10;;;7.90;99.90;;;;;;4907845;28;20050;-92
2022/04/27 04:06:52;;;;;;;7.43;3.90;;;7.90;99.90;;;;;;4908120;29;20067;-93
2022/04/27 04:09:17;;;;;;;8.98;4.00;;;7.90;99.90;;;;;;4907951;29;20402;-91
2022/04/27 04:11:44;;;;;;;9.23;4.45;;;7.90;99.90;;;;;;4893157;29;20082;-91
2022/04/27 04:14:10;;;;;;;7.63;4.20;;;8.00;99.90;;;;;;4892420;29;20082;-91
2022/04/27 04:16:36;;;;;;;5.70;4.18;;;7.80;99.90;;;;;;4908064;29;20405;-91
2022/04/27 04:19:01;;;;;;;9.32;4.40;;;7.90;99.90;;;;;;4892754;29;20408;-92
2022/04/27 04:21:27;;;;;;;7.57;4.35;;;7.90;99.90;;;;;;4892820;29;20126;-93
2022/04/27 04:23:53;;;;;;;9.00;4.40;;;7.90;99.90;;;;;;4892420;29;20047;-90
2022/04/27 04:29:04;;;;;;;6.90;4.78;;;7.90;99.90;;;;;;4910611;29;20151;-94
2022/04/27 04:31:30;;;;;;;6.97;4.75;;;7.90;99.90;;;;;;4892978;29;20059;-91
2022/04/27 04:33:56;;;;;;;8.30;4.47;;;7.80;99.90;;;;;;4880454;29;20130;-93
2022/04/27 04:36:22;;;;;;;7.50;4.70;;;7.80;99.90;;;;;;4895991;29;20074;-91
2022/04/27 04:38:49;;;;;;;8.88;4.60;;;7.80;99.90;;;;;;4880103;29;20043;-91
2022/04/27 04:41:14;;;;;;;8.52;5.20;;;7.80;99.90;;;;;;4911329;29;20409;-95
2022/04/27 04:43:41;;;;;;;8.35;4.63;;;7.70;99.90;;;;;;4880304;29;20102;-92
2022/04/27 04:46:07;;;;;;;7.85;5.00;;;7.80;99.90;;;;;;4895727;29;20051;-94
2022/04/27 04:48:33;;;;;;;7.57;4.78;;;7.90;99.90;;;;;;4895972;29;20047;-92
2022/04/27 04:50:59;;;;;;;7.93;4.32;;;7.80;99.90;;;;;;4926604;29;20047;-91
2022/04/27 04:53:26;;;;;;;8.77;4.72;;;7.90;99.90;;;;;;4879828;29;20047;-92
2022/04/27 04:55:51;;;;;;;11.82;4.75;;;7.90;99.90;;;;;;4880115;29;20043;-92
2022/04/27 04:58:18;;;;;;;8.13;4.78;;;7.90;99.90;;;;;;4895310;29;20175;-93
2022/04/27 05:00:45;;;;;;;7.25;4.55;;;7.90;99.90;;;;;;4910733;29;20050;-93
2022/04/27 05:03:11;;;;;;;5.43;4.20;;;7.90;99.90;;;;;;4894922;29;20507;-94
2022/04/27 05:05:41;;;;;;;5.95;4.57;;;7.90;99.90;;;;;;4910469;29;20093;-92
2022/04/27 05:08:09;;;;;;;5.65;4.50;;;7.90;99.90;;;;;;4910103;29;20055;-92
2022/04/27 05:10:36;;;;;;;6.68;4.38;;;7.90;99.90;;;;;;4880064;29;20047;-93
2022/04/27 05:13:02;;;;;;;6.90;4.00;;;8.00;99.90;;;;;;4911239;29;20633;-94
2022/04/27 05:15:29;;;;;;;6.75;4.85;;;8.00;99.90;;;;;;4913494;29;20054;-93
2022/04/27 05:17:55;;;;;;;7.53;4.70;;;8.00;99.90;;;;;;4883120;29;20050;-93
2022/04/27 05:20:20;;;;;;;6.65;4.90;;;8.00;99.90;;;;;;4898009;29;20043;-94
2022/04/27 05:22:46;;;;;;;9.15;5.30;;;8.00;99.90;;;;;;4898789;29;20047;-93
2022/04/27 05:25:12;;;;;;;8.52;5.55;;;8.10;99.90;;;;;;4900997;29;20039;-93
2022/04/27 05:27:38;;;;;;;8.93;5.95;;;8.10;99.90;;;;;;4900031;29;20102;-93
2022/04/27 05:32:51;;;;;;;8.57;4.63;;;8.10;99.90;;;;;;4918068;29;20043;-93
2022/04/27 05:35:17;;;;;;;6.93;5.30;;;8.20;99.90;;;;;;4914930;29;20054;-93
2022/04/27 05:37:43;;;;;;;8.75;5.07;;;8.20;99.90;;;;;;4913426;29;20039;-91
2022/04/27 05:40:11;;;;;;;8.63;4.13;;;8.20;99.90;;;;;;4928784;29;20043;-92
2022/04/27 05:42:38;;;;;;;9.68;4.30;;;8.20;99.90;;;;;;4913441;29;20040;-92
2022/04/27 05:45:05;;;;;;;8.45;4.00;;;8.30;99.90;;;;;;4912690;29;20054;-93
2022/04/27 05:47:32;;;;;;;6.70;4.05;;;8.30;99.90;;;;;;4928830;29;20506;-93
2022/04/27 05:49:58;;;;;;;6.10;3.97;;;8.30;99.90;;;;;;4912876;29;20139;-92
2022/04/27 05:52:24;;;;;;;8.68;4.55;;;8.30;99.90;;;;;;4897520;29;20135;-94
2022/04/27 05:54:51;;;;;;;10.07;4.50;;;8.30;99.90;;;;;;4896997;29;20043;-93
2022/04/27 05:57:18;;;;;;;6.55;4.72;;;8.30;99.90;;;;;;4927731;29;20050;-93
2022/04/27 05:59:44;;;;;;;5.60;4.00;;;8.40;99.90;;;;;;4912163;29;20043;-93
2022/04/27 06:02:10;;;;;;;10.50;4.95;;;8.40;99.90;;;;;;4910165;29;20062;-93
2022/04/27 06:04:36;;;;;;;6.13;4.57;;;8.40;99.90;;;;;;4894965;28;20047;-94
2022/04/27 06:07:04;;;;;;;8.27;4.75;;;8.40;99.90;;;;;;4925703;29;20113;-93
2022/04/27 06:09:30;;;;;;;8.15;4.90;;;8.50;99.90;;;;;;4910305;29;20054;-91
2022/04/27 06:11:56;;;;;;;9.68;3.53;;;8.50;99.90;;;;;;4910030;29;20125;-92
2022/04/27 06:14:24;;;;;;;7.60;2.20;;;8.50;99.90;;;;;;4894027;29;20202;-92
2022/04/27 06:16:50;;;;;;;5.55;2.78;;;8.60;99.90;;;;;;4894487;29;20043;-94
2022/04/27 06:19:17;;;;;;;4.38;2.35;;;8.60;99.90;;;;;;4878123;29;20047;-93
2022/04/27 06:21:43;;;;;;;5.65;2.25;;;8.60;99.90;;;;;;4909223;29;20066;-92
2022/04/27 06:24:09;;;;;;;4.47;2.00;;;8.60;99.80;;;;;;4878210;29;20106;-93
2022/04/27 06:26:36;;;;;;;3.95;2.10;;;8.70;99.40;;;;;;4878291;29;20043;-93
2022/04/27 06:29:03;;;;;;;3.67;2.20;;;8.70;99.10;;;;;;4909587;29;20062;-92
2022/04/27 06:31:30;;;;;;;3.63;2.05;;;8.80;98.70;;;;;;4925118;29;20050;-91
2022/04/27 06:33:57;;;;;;;8.75;3.10;;;8.80;98.30;;;;;;4909251;29;20449;-93
2022/04/27 06:36:23;;;;;;;7.40;3.80;;;8.90;98.50;;;;;;4908694;29;20039;-93
2022/04/27 06:38:50;;;;;;;7.28;3.67;;;8.90;98.70;;;;;;4924408;29;20047;-94
2022/04/27 06:41:16;;;;;;;5.00;3.60;;;8.80;98.90;;;;;;4909221;29;20382;-93
2022/04/27 06:43:42;;;;;;;6.35;3.47;;;9.00;99.00;;;;;;4924766;29;20082;-94
2022/04/27 06:46:08;;;;;;;3.83;3.42;;;9.00;99.00;;;;;;4908942;29;20568;-94
2022/04/27 06:48:34;;;;;;;6.47;3.50;;;9.10;99.10;;;;;;4908604;29;20051;-94
2022/04/27 06:51:00;;;;;;;9.02;4.32;;;9.10;99.10;;;;;;4908745;29;20050;-94
2022/04/27 06:53:26;;;;;;;7.10;4.22;;;9.10;99.30;;;;;;4908390;29;20052;-92
2022/04/27 06:55:52;;;;;;;6.35;3.50;;;9.20;99.30;;;;;;4892800;29;20051;-93
2022/04/27 06:58:18;;;;;;;7.78;4.05;;;9.20;99.20;;;;;;4877763;29;20039;-94
2022/04/27 07:00:44;;;;;;;6.78;3.45;;;9.30;99.20;;;;;;4908334;29;20039;-91
2022/04/27 07:03:10;;;;;;;5.38;3.92;;;9.30;99.10;;;;;;4892953;29;20047;-93
2022/04/27 07:05:36;;;;;;;6.95;3.55;;;9.30;99.00;;;;;;4893160;29;20075;-93
2022/04/27 07:08:04;;;;;;;5.70;3.17;;;9.30;99.10;;;;;;4877567;29;20059;-93
2022/04/27 07:10:36;;;;;;;6.72;3.30;;;9.40;99.10;;;;;;4924226;29;20142;-92
2022/04/27 07:13:05;;;;;;;6.05;3.17;;;9.40;99.00;;;;;;4909284;29;20102;-92
2022/04/27 07:15:32;;;;;;;5.07;2.83;;;9.50;98.60;;;;;;4908712;29;20115;-95
2022/04/27 07:17:58;;;;;;;6.30;2.85;;;9.50;98.50;;;;;;4877258;29;20074;-92
2022/04/27 07:20:24;;;;;;;5.95;2.95;;;9.50;98.30;;;;;;4908312;29;20050;-92
2022/04/27 07:22:50;;;;;;;6.22;2.83;;;9.60;98.00;;;;;;4893046;29;20556;-93
2022/04/27 07:25:18;;;;;;;5.05;3.00;;;9.60;97.80;;;;;;4892851;29;20126;-91
2022/04/27 07:27:45;;;;;;;6.47;2.85;;;9.60;97.70;;;;;;4893069;29;20126;-93
2022/04/27 07:30:11;;;;;;;9.50;3.22;;;9.60;97.40;;;;;;4908304;29;20078;-92
2022/04/27 07:32:37;;;;;;;6.82;3.05;;;9.60;97.40;;;;;;4892816;29;20490;-93
2022/04/27 07:35:03;;;;;;;6.82;3.15;;;9.70;97.30;;;;;;4877330;29;20110;-92
2022/04/27 07:37:29;;;;;;;8.77;3.08;;;9.70;97.20;;;;;;4923662;29;20043;-94
2022/04/27 07:39:58;;;;;;;6.38;3.10;;;9.70;97.20;;;;;;4877465;29;20031;-92
2022/04/27 07:42:24;;;;;;;7.63;3.47;;;9.70;97.30;;;;;;4893413;29;20047;-92
2022/04/27 07:44:50;;;;;;;7.32;3.28;;;9.70;97.20;;;;;;4907902;29;20051;-92
2022/04/27 07:47:15;;;;;;;5.45;3.33;;;9.70;97.20;;;;;;4892368;29;20054;-92
2022/04/27 07:49:41;;;;;;;8.77;3.65;;;9.70;97.60;;;;;;4876893;29;20509;-92
2022/04/27 07:52:08;;;;;;;5.60;3.03;;;9.70;98.00;;;;;;4876836;29;20043;-93
2022/04/27 07:54:34;;;;;;;8.65;3.00;;;9.70;97.90;;;;;;4892597;29;20035;-91
2022/04/27 07:57:00;;;;;;;6.15;3.58;;;9.60;97.90;;;;;;4892553;29;20049;-92
2022/04/27 07:59:26;;;;;;;9.13;3.88;;;9.80;98.20;;;;;;4877098;29;20043;-91
2022/04/27 08:01:52;;;;;;;7.88;3.45;;;9.80;98.50;;;;;;4892046;29;20081;-94
2022/04/27 08:04:18;;;;;;;11.15;3.30;;;9.80;98.70;;;;;;4892518;29;20047;-93
2022/04/27 08:06:44;;;;;;;9.77;3.00;;;9.90;98.70;;;;;;4877610;29;20059;-92
2022/04/27 08:09:10;;;;;;;10.60;3.25;;;9.90;98.70;;;;;;4895709;29;20106;-92
2022/04/27 08:11:39;;;;;;;13.15;3.38;;;10.00;98.90;;;;;;4895332;29;20089;-91
2022/04/27 08:14:06;;;;;;;11.02;3.50;;;9.90;99.30;;;;;;4881046;29;20055;-91
2022/04/27 08:16:32;;;;;;;10.55;3.10;;;10.00;99.30;;;;;;4895944;29;20043;-91
2022/04/27 08:18:58;;;;;;;12.43;3.38;;;10.00;99.30;;;;;;4880334;29;20039;-93
2022/04/27 08:21:27;;;;;;;11.27;3.63;;;10.10;99.20;;;;;;4880487;29;20043;-93
2022/04/27 08:23:54;;;;;;;8.35;3.05;;;10.20;99.10;;;;;;4911245;29;20043;-91
2022/04/27 08:26:20;;;;;;;13.13;2.88;;;10.10;99.10;;;;;;4895439;29;20047;-91
2022/04/27 08:28:46;;;;;;;19.42;3.58;;;10.20;99.10;;;;;;4895380;29;20051;-92
2022/04/27 08:31:14;;;;;;;13.77;3.30;;;10.20;99.10;;;;;;4879888;29;20387;-94
2022/04/27 08:33:40;;;;;;;12.30;3.25;;;10.30;99.00;;;;;;4895530;29;20051;-93
2022/04/27 08:36:07;;;;;;;10.02;3.53;;;10.30;98.90;;;;;;4915136;29;20127;-92
2022/04/27 08:38:34;;;;;;;11.20;3.45;;;10.30;98.60;;;;;;4880525;29;20047;-93
2022/04/27 08:41:01;;;;;;;11.77;3.25;;;10.40;98.50;;;;;;4876859;29;20051;-92
2022/04/27 08:43:26;;;;;;;12.85;3.38;;;10.40;98.50;;;;;;4900573;28;20110;-92
2022/04/27 08:45:55;;;;;;;13.98;3.95;;;10.40;98.50;;;;;;4930040;28;20050;-93
2022/04/27 08:48:22;;;;;;;13.15;3.30;;;10.40;98.30;;;;;;4926474;29;20051;-92
2022/04/27 08:50:49;;;;;;;14.85;3.72;;;10.40;98.40;;;;;;4910593;29;20051;-92
2022/04/27 08:53:15;;;;;;;8.15;2.95;;;10.40;98.60;;;;;;4910429;29;20053;-93
2022/04/27 08:55:41;;;;;;;9.52;2.75;;;10.40;98.60;;;;;;4895278;29;20109;-91
2022/04/27 08:58:12;;;;;;;10.18;3.45;;;10.40;98.60;;;;;;4910211;29;20047;-92
2022/04/27 09:00:39;;;;;;;13.48;3.72;;;10.40;98.60;;;;;;4879424;29;20053;-92
2022/04/27 09:03:42;;;;;;;15.75;3.72;;;10.40;98.70;;;;;;4910133;29;20138;-92
2022/04/27 09:06:13;;;;;;;15.83;4.27;;;10.40;98.60;;;;;;4886007;29;20044;-92
2022/04/27 09:08:49;;;;;;;10.57;3.35;;;10.40;98.80;;;;;;4869767;29;20052;-91
2022/04/27 09:11:19;;;;;;;15.35;3.72;;;10.30;98.90;;;;;;4870928;29;20127;-93
2022/04/27 09:13:49;;;;;;;9.65;3.45;;;10.30;99.10;;;;;;4900948;29;20120;-92
2022/04/27 09:16:16;;;;;;;13.65;3.00;;;10.30;99.10;;;;;;4900856;29;20055;-91
2022/04/27 09:22:06;;;;;;;13.70;3.23;;;10.30;99.50;;;;;;4903829;29;20046;-91
2022/04/27 09:24:57;;;;;;;11.75;3.60;;;10.30;99.50;;;;;;4903089;29;20794;-91
2022/04/27 09:27:24;;;;;;;14.93;3.80;;;10.30;99.60;;;;;;4873779;29;20111;-92
2022/04/27 09:29:59;;;;;;;10.77;3.30;;;10.30;99.50;;;;;;4887528;29;20103;-93
2022/04/27 09:32:25;;;;;;;11.48;3.40;;;10.40;99.20;;;;;;4872659;29;20052;-91
2022/04/27 09:34:51;;;;;;;11.18;3.53;;;10.50;99.20;;;;;;4872502;29;20098;-93
2022/04/27 09:37:24;;;;;;;10.73;3.20;;;10.40;99.20;;;;;;4887497;29;20483;-94
2022/04/27 09:40:08;;;;;;;9.20;3.05;;;10.40;99.30;;;;;;4869629;29;20499;-92
2022/04/27 09:42:37;;;;;;;15.15;3.88;;;10.30;99.20;;;;;;4869534;29;20499;-93
2022/04/27 09:45:24;;;;;;;13.20;3.28;;;10.40;99.20;;;;;;4869048;29;20056;-91
2022/04/27 09:48:00;;;;;;;10.07;3.25;;;10.50;99.30;;;;;;4869120;29;20056;-91
2022/04/27 09:50:26;;;;;;;9.13;2.97;;;10.30;99.30;;;;;;4869192;29;20506;-92
2022/04/27 09:52:55;;;;;;;13.32;3.35;;;10.30;99.20;;;;;;4868849;29;20052;-91
2022/04/27 09:55:23;;;;;;;9.50;2.63;;;10.30;98.80;;;;;;4868593;29;20139;-92
2022/04/27 09:57:56;;;;;;;9.55;2.92;;;10.30;98.70;;;;;;4869072;29;20467;-92
2022/04/27 10:00:22;;;;;;;17.25;3.28;;;10.30;98.70;;;;;;4901356;29;20487;-92
2022/04/27 10:02:49;;;;;;;9.07;3.10;;;10.30;98.90;;;;;;4868663;29;20091;-90
2022/04/27 10:05:15;;;;;;;14.90;3.08;;;10.30;98.80;;;;;;4868238;29;20048;-91
2022/04/27 10:07:42;;;;;;;11.50;3.40;;;10.30;98.60;;;;;;4888807;29;20072;-91
2022/04/27 10:10:09;;;;;;;13.93;3.42;;;10.20;98.50;;;;;;4931188;29;20526;-91
2022/04/27 10:12:38;;;;;;;11.63;3.08;;;10.20;98.40;;;;;;4899266;29;20090;-92
2022/04/27 10:15:05;;;;;;;16.10;3.22;;;10.20;98.30;;;;;;4853165;29;20049;-91
2022/04/27 10:17:32;;;;;;;18.00;3.28;;;10.20;98.40;;;;;;4875359;29;20112;-91
2022/04/27 10:19:58;;;;;;;13.23;3.40;;;10.30;98.50;;;;;;4903560;29;20554;-92
2022/04/27 10:22:30;;;;;;;11.38;3.90;;;10.30;98.40;;;;;;4901976;29;20115;-92
2022/04/27 10:25:07;;;;;;;16.30;4.75;;;10.30;98.50;;;;;;4902286;29;20098;-93
2022/04/27 10:27:36;;;;;;;13.30;3.63;;;10.40;98.40;;;;;;4931607;29;20045;-93
2022/04/27 10:30:07;;;;;;;9.55;3.28;;;10.40;98.10;;;;;;4893392;29;20044;-91
2022/04/27 10:32:47;;;;;;;15.20;3.70;;;10.40;97.90;;;;;;4920428;29;20071;-90
2022/04/27 10:35:19;;;;;;;13.57;3.30;;;10.40;97.80;;;;;;4878233;29;20040;-92
2022/04/27 10:37:49;;;;;;;18.05;3.55;;;10.40;97.70;;;;;;4886791;29;20075;-91
2022/04/27 10:40:42;;;;;;;21.58;3.42;;;10.50;97.70;;;;;;4934096;29;20063;-92
2022/04/27 10:43:08;;;;;;;13.13;3.38;;;10.50;97.40;;;;;;4872418;29;20055;-91
2022/04/27 10:45:38;;;;;;;16.23;3.30;;;10.60;97.30;;;;;;4886059;29;20191;-91
2022/04/27 10:48:07;;;;;;;12.65;2.90;;;10.60;97.10;;;;;;4933206;29;20074;-93
2022/04/27 10:50:37;;;;;;;17.25;3.45;;;10.60;97.00;;;;;;4886411;29;20086;-91
2022/04/27 10:53:21;;;;;;;18.90;4.13;;;10.60;96.80;;;;;;4900415;29;20044;-93
2022/04/27 10:55:51;;;;;;;11.00;2.88;;;10.70;96.70;;;;;;4886238;29;20044;-92
2022/04/27 10:58:23;;;;;;;12.77;3.53;;;10.70;96.60;;;;;;4926604;29;20045;-92
2022/04/27 11:00:58;;;;;;;13.00;2.60;;;10.80;96.50;;;;;;4912409;29;20040;-91
2022/04/27 11:03:31;;;;;;;8.52;2.50;;;10.80;96.00;;;;;;4882380;29;20115;-93
2022/04/27 11:06:02;;;;;;;13.70;3.17;;;10.90;95.70;;;;;;4883059;29;20045;-93
2022/04/27 11:08:53;;;;;;;14.40;3.00;;;10.90;95.90;;;;;;4901758;29;20535;-93
2022/04/27 11:11:25;;;;;;;12.20;3.30;;;11.00;96.00;;;;;;4886173;29;20136;-91
2022/04/27 11:13:57;;;;;;;13.70;3.30;;;11.10;95.70;;;;;;4883051;29;20072;-92
2022/04/27 11:16:23;;;;;;;11.52;3.13;;;11.10;95.40;;;;;;4868575;29;20047;-91
2022/04/27 11:18:57;;;;;;;15.70;3.10;;;11.20;95.00;;;;;;4852560;29;20051;-90
2022/04/27 11:21:26;;;;;;;13.07;3.08;;;11.30;95.00;;;;;;4900863;29;20043;-90
2022/04/27 11:23:53;;;;;;;9.38;2.72;;;11.40;94.80;;;;;;4886142;29;20052;-91
2022/04/27 11:26:19;;;;;;;13.60;3.35;;;11.40;94.20;;;;;;4885987;29;20055;-91
2022/04/27 11:28:46;;;;;;;13.52;3.97;;;11.50;93.80;;;;;;4867204;29;20518;-93
2022/04/27 11:31:14;;;;;;;10.68;2.65;;;11.60;93.70;;;;;;4867420;29;20092;-94
2022/04/27 11:33:41;;;;;;;17.33;3.35;;;11.60;93.70;;;;;;4870450;29;20048;-91
2022/04/27 11:36:27;;;;;;;8.02;2.92;;;11.60;93.80;;;;;;4886077;29;20104;-93
2022/04/27 11:38:54;;;;;;;9.75;2.70;;;11.70;93.80;;;;;;4886448;29;20048;-92
2022/04/27 11:41:23;;;;;;;9.38;2.40;;;11.80;93.40;;;;;;4887718;29;20103;-94
2022/04/27 11:43:51;;;;;;;9.77;3.00;;;11.80;93.30;;;;;;4905477;29;20094;-91
2022/04/27 11:46:17;;;;;;;10.02;2.90;;;12.00;93.20;;;;;;4889770;29;20483;-90
2022/04/27 11:48:48;;;;;;;13.30;3.35;;;12.00;92.80;;;;;;4889501;29;20163;-92
2022/04/27 11:51:14;;;;;;;10.25;2.85;;;12.10;92.50;;;;;;4889860;29;20091;-92
2022/04/27 11:53:47;;;;;;;10.52;2.58;;;12.20;91.70;;;;;;4889270;29;20082;-92
2022/04/27 11:56:17;;;;;;;8.60;2.67;;;12.20;91.20;;;;;;4889811;29;20123;-92
2022/04/27 11:58:45;;;;;;;11.10;3.10;;;12.20;91.00;;;;;;4889732;29;20047;-92
2022/04/27 12:01:20;;;;;;;12.90;3.15;;;12.30;91.00;;;;;;4889596;29;20126;-92
2022/04/27 12:03:49;;;;;;;8.55;2.58;;;12.40;90.50;;;;;;4905180;29;20048;-94
2022/04/27 12:06:19;;;;;;;15.18;2.80;;;12.50;90.10;;;;;;4889743;29;20103;-91
2022/04/27 12:08:45;;;;;;;16.42;2.90;;;12.50;90.20;;;;;;4895768;29;20525;-93
2022/04/27 12:11:21;;;;;;;8.07;2.60;;;12.70;90.50;;;;;;4896053;29;20457;-93
2022/04/27 12:13:48;;;;;;;11.73;2.78;;;12.70;89.80;;;;;;4895937;29;20040;-91
2022/04/27 12:16:14;;;;;;;8.65;2.38;;;12.70;89.00;;;;;;4895672;29;20043;-92
2022/04/27 12:18:51;;;;;;;8.90;2.58;;;12.80;88.70;;;;;;4895430;29;20047;-94
2022/04/27 12:21:26;;;;;;;10.60;2.92;;;12.90;87.80;;;;;;4927068;29;20420;-91
2022/04/27 12:23:56;;;;;;;11.27;2.70;;;12.80;88.00;;;;;;4927092;29;20374;-91
2022/04/27 12:26:24;;;;;;;7.85;2.80;;;12.90;87.80;;;;;;4895912;29;20050;-91
2022/04/27 12:28:50;;;;;;;8.48;2.58;;;12.90;86.50;;;;;;4910733;29;20051;-92
2022/04/27 12:31:20;;;;;;;8.73;2.78;;;12.90;85.90;;;;;;4895340;29;20050;-93
2022/04/27 12:33:48;;;;;;;6.13;2.50;;;13.00;85.20;;;;;;4896011;29;20494;-92
2022/04/27 12:39:20;;;;;;;11.00;2.85;;;13.10;86.90;;;;;;4942028;29;20084;-91
2022/04/27 12:41:47;;;;;;;9.20;2.60;;;13.10;86.80;;;;;;4895795;29;20506;-92
2022/04/27 12:44:24;;;;;;;10.35;3.40;;;13.10;85.70;;;;;;4895094;29;20055;-92
2022/04/27 12:46:56;;;;;;;8.73;2.90;;;13.10;84.90;;;;;;4910848;29;20088;-93
2022/04/27 12:49:30;;;;;;;9.52;3.25;;;13.10;84.40;;;;;;4910386;29;20497;-92
2022/04/27 12:52:16;;;;;;;11.73;3.10;;;13.00;83.70;;;;;;4925926;28;20186;-93
2022/04/27 12:54:43;;;;;;;9.32;3.10;;;13.00;83.30;;;;;;4894806;29;20196;-92
2022/04/27 12:57:10;;;;;;;8.27;2.63;;;13.00;83.70;;;;;;4895250;29;20047;-93
2022/04/27 13:00:03;;;;;;;14.05;2.78;;;13.00;83.70;;;;;;4895044;29;20049;-93
2022/04/27 13:02:29;;;;;;;7.65;2.78;;;13.10;83.00;;;;;;4927317;29;20439;-93
2022/04/27 13:04:56;;;;;;;7.88;2.85;;;13.10;82.50;;;;;;4895003;29;20130;-92
2022/04/27 13:07:22;;;;;;;10.40;2.75;;;13.20;82.70;;;;;;4894703;29;20482;-93
2022/04/27 13:12:35;;;;;;;9.25;2.38;;;13.10;80.40;;;;;;4915798;29;20124;-93